Time;durP1;ratioP1;P1;durP2;ratioP2;P2;SDS_P1;SDS_P2;PMS_P1;PMS_P2;Temp;Humidity;BMP_temperature;BMP_pressure;BME280_temperature;BME280_humidity;BME280_pressure;Samples;Min_cycle;Max_cycle;Signal;HPM_P1;HPM_P2
2023/05/20 00:00:10;;;;;;;4.60;3.20;;;;;;;11.09;59.02;101723.31;690999;28;1130;-78
2023/05/20 00:00:30;;;;;;;4.05;3.05;;;;;;;11.15;58.63;101739.25;693275;28;1325;-78
2023/05/20 00:00:52;;;;;;;3.80;3.00;;;;;;;11.08;58.75;101724.13;696379;28;1248;-79
2023/05/20 00:01:12;;;;;;;3.90;2.80;;;;;;;11.08;58.80;101716.31;690905;28;1157;-79
2023/05/20 00:01:33;;;;;;;3.80;2.70;;;;;;;11.09;58.92;101726.81;690515;28;1117;-78
2023/05/20 00:01:53;;;;;;;3.42;2.60;;;;;;;11.13;58.95;101737.38;691060;28;764;-78
2023/05/20 00:02:15;;;;;;;4.17;2.83;;;;;;;11.08;58.90;101730.25;685492;28;989;-79
2023/05/20 00:02:35;;;;;;;4.43;3.10;;;;;;;11.07;58.78;101731.06;687903;28;1149;-79
2023/05/20 00:02:58;;;;;;;4.50;3.05;;;;;;;11.08;59.13;101735.47;688385;28;843;-79
2023/05/20 00:03:19;;;;;;;4.53;2.97;;;;;;;11.03;58.95;101721.34;693530;28;1922;-78
2023/05/20 00:03:40;;;;;;;4.20;3.00;;;;;;;11.05;59.08;101732.75;693460;28;1089;-79
2023/05/20 00:04:01;;;;;;;4.40;3.17;;;;;;;11.00;58.91;101715.09;691025;28;815;-78
2023/05/20 00:04:21;;;;;;;3.70;3.00;;;;;;;11.03;59.13;101731.78;696230;28;1171;-78
2023/05/20 00:04:42;;;;;;;4.82;3.30;;;;;;;11.06;59.12;101733.66;693453;28;1346;-79
2023/05/20 00:05:03;;;;;;;4.45;3.00;;;;;;;11.05;58.75;101735.34;693681;28;1122;-78
2023/05/20 00:05:24;;;;;;;5.40;3.10;;;;;;;11.02;59.15;101735.22;693614;28;1087;-80
2023/05/20 00:05:45;;;;;;;4.40;2.78;;;;;;;11.00;59.22;101730.78;690845;28;1216;-78
2023/05/20 00:06:06;;;;;;;4.45;2.83;;;;;;;11.06;58.85;101738.88;691440;28;1266;-79
2023/05/20 00:06:27;;;;;;;3.63;2.80;;;;;;;11.03;59.36;101736.09;691276;28;992;-79
2023/05/20 00:06:47;;;;;;;3.80;2.80;;;;;;;10.95;59.00;101721.00;691168;28;1178;-78
2023/05/20 00:07:08;;;;;;;4.37;3.07;;;;;;;11.04;58.84;101740.50;691533;28;1215;-78
2023/05/20 00:07:29;;;;;;;5.38;2.92;;;;;;;10.95;59.08;101721.00;688674;28;1195;-78
2023/05/20 00:07:49;;;;;;;4.73;2.83;;;;;;;10.95;58.92;101721.00;691494;28;1035;-78
2023/05/20 00:08:10;;;;;;;3.90;2.58;;;;;;;10.97;58.91;101722.00;688830;28;1079;-78
2023/05/20 00:08:30;;;;;;;2.90;2.60;;;;;;;10.99;59.28;101729.00;693882;28;1191;-78
2023/05/20 00:08:51;;;;;;;3.10;2.80;;;;;;;11.01;59.16;101724.72;699725;28;906;-79
2023/05/20 00:09:12;;;;;;;3.50;3.00;;;;;;;11.01;59.11;101727.31;694142;28;1216;-79
2023/05/20 00:09:33;;;;;;;4.50;2.88;;;;;;;11.05;59.04;101737.09;688367;28;1262;-78
2023/05/20 00:09:53;;;;;;;4.35;2.63;;;;;;;11.03;59.30;101734.41;694328;28;1334;-78
2023/05/20 00:10:14;;;;;;;4.03;2.60;;;;;;;11.02;59.09;101734.31;694194;28;1302;-78
2023/05/20 00:10:35;;;;;;;3.00;2.60;;;;;;;10.97;59.32;101724.59;693970;28;1080;-79
2023/05/20 00:10:55;;;;;;;3.00;2.70;;;;;;;10.95;59.05;101717.53;688683;28;1200;-78
2023/05/20 00:11:16;;;;;;;3.93;2.90;;;;;;;11.02;59.19;101734.31;688786;28;1012;-79
2023/05/20 00:11:36;;;;;;;4.37;3.00;;;;;;;11.01;59.05;101732.56;691212;28;1092;-78
2023/05/20 00:11:57;;;;;;;5.40;3.28;;;;;;;10.96;59.27;101724.53;699779;28;1302;-79
2023/05/20 00:12:18;;;;;;;4.90;3.20;;;;;;;11.05;59.16;101739.69;694015;28;1146;-79
2023/05/20 00:12:39;;;;;;;5.13;3.27;;;;;;;10.97;59.08;101727.22;685834;28;1127;-78
2023/05/20 00:12:59;;;;;;;5.38;3.25;;;;;;;10.93;59.31;101719.16;688888;28;962;-78
2023/05/20 00:13:20;;;;;;;5.80;3.15;;;;;;;10.93;59.10;101724.38;688665;28;1225;-78
2023/05/20 00:13:40;;;;;;;6.83;3.10;;;;;;;10.96;59.16;101735.84;693905;28;1400;-78
2023/05/20 00:14:01;;;;;;;5.97;3.00;;;;;;;10.93;59.30;101729.59;694282;28;949;-79
2023/05/20 00:14:21;;;;;;;5.07;3.00;;;;;;;10.89;59.59;101717.25;691260;28;1479;-78
2023/05/20 00:14:42;;;;;;;3.80;2.97;;;;;;;10.91;59.35;101724.34;693917;28;1285;-79
2023/05/20 00:15:03;;;;;;;4.13;3.00;;;;;;;10.92;59.33;101728.72;696860;28;1067;-78
2023/05/20 00:15:24;;;;;;;4.60;3.20;;;;;;;10.92;59.26;101728.72;694123;28;1143;-78
2023/05/20 00:15:44;;;;;;;4.85;3.30;;;;;;;10.99;59.32;101739.44;693814;28;1358;-78
2023/05/20 00:16:05;;;;;;;4.27;3.30;;;;;;;10.93;59.33;101733.13;696823;28;1293;-78
2023/05/20 00:16:26;;;;;;;4.93;3.40;;;;;;;10.89;59.32;101723.38;691254;28;1076;-79
2023/05/20 00:16:47;;;;;;;7.88;3.58;;;;;;;10.89;59.46;101722.47;688458;28;1358;-79
2023/05/20 00:17:08;;;;;;;7.22;3.28;;;;;;;10.86;59.40;101725.84;691385;28;1078;-78
2023/05/20 00:17:28;;;;;;;6.65;3.05;;;;;;;10.86;59.41;101717.13;691217;28;1927;-78
2023/05/20 00:17:49;;;;;;;3.60;2.67;;;;;;;10.85;59.42;101726.69;691375;28;1168;-78
2023/05/20 00:18:09;;;;;;;3.97;2.75;;;;;;;10.83;59.52;101715.28;694112;28;1181;-78
2023/05/20 00:18:31;;;;;;;3.53;2.70;;;;;;;10.83;59.78;101733.56;691192;28;1077;-77
2023/05/20 00:18:52;;;;;;;3.58;2.83;;;;;;;10.69;59.89;101726.03;696855;28;1412;-78
2023/05/20 00:19:12;;;;;;;3.70;3.00;;;;;;;10.66;59.90;101731.13;694109;28;1544;-78
2023/05/20 00:19:33;;;;;;;3.80;3.10;;;;;;;10.62;60.25;101723.97;691011;28;1281;-79
2023/05/20 00:19:53;;;;;;;3.63;3.10;;;;;;;10.71;60.42;101747.00;691554;28;764;-79
2023/05/20 00:20:14;;;;;;;3.60;2.90;;;;;;;10.63;60.27;101725.75;691372;28;1256;-78
2023/05/20 00:20:34;;;;;;;4.00;2.80;;;;;;;10.71;60.30;101727.81;693403;28;1282;-79
2023/05/20 00:20:55;;;;;;;5.00;3.20;;;;;;;10.67;60.19;101721.56;691462;28;1352;-78
2023/05/20 00:21:16;;;;;;;5.15;3.15;;;;;;;10.73;60.34;101727.06;688827;28;1277;-78
2023/05/20 00:21:36;;;;;;;5.10;3.20;;;;;;;10.76;60.20;101731.50;688446;28;1217;-79
2023/05/20 00:21:57;;;;;;;4.00;2.90;;;;;;;10.72;60.55;101733.09;694315;28;746;-79
2023/05/20 00:22:18;;;;;;;3.42;2.80;;;;;;;10.73;60.01;101732.28;693991;28;1182;-78
2023/05/20 00:22:39;;;;;;;3.00;2.60;;;;;;;10.67;60.50;101717.25;693889;28;1235;-78
2023/05/20 00:22:59;;;;;;;3.20;2.60;;;;;;;10.70;60.36;101732.16;691382;28;863;-78
2023/05/20 00:23:20;;;;;;;3.60;2.78;;;;;;;10.72;60.34;101732.19;691396;28;1105;-78
2023/05/20 00:23:40;;;;;;;3.85;3.05;;;;;;;10.68;60.24;101729.47;691297;28;1013;-78
2023/05/20 00:24:01;;;;;;;3.87;3.20;;;;;;;10.73;60.46;101737.50;691600;28;775;-78
2023/05/20 00:24:24;;;;;;;4.60;3.17;;;;;;;10.60;60.95;101736.06;688514;28;1204;-78
2023/05/20 00:24:44;;;;;;;4.53;3.00;;;;;;;10.48;60.77;101720.78;691098;28;1372;-78
2023/05/20 00:25:06;;;;;;;5.03;3.00;;;;;;;10.51;61.17;101735.69;691601;28;1195;-78
2023/05/20 00:25:27;;;;;;;4.55;3.10;;;;;;;10.47;60.98;101733.75;691065;28;1262;-79
2023/05/20 00:25:48;;;;;;;5.38;3.10;;;;;;;10.39;61.40;101721.25;691382;28;1027;-78
2023/05/20 00:26:09;;;;;;;5.10;3.10;;;;;;;10.43;61.21;101726.63;691540;28;1033;-78
2023/05/20 00:26:30;;;;;;;4.70;2.90;;;;;;;10.40;61.31;101719.53;691108;28;1311;-79
2023/05/20 00:26:51;;;;;;;4.80;3.00;;;;;;;10.46;61.33;101731.97;691200;28;1503;-79
2023/05/20 00:27:11;;;;;;;4.40;2.90;;;;;;;10.54;61.14;101728.88;691492;28;1014;-78
2023/05/20 00:27:32;;;;;;;4.90;3.22;;;;;;;10.60;61.20;101730.84;691337;28;1008;-78
2023/05/20 00:27:53;;;;;;;4.60;3.20;;;;;;;10.63;60.78;101736.19;694156;28;1209;-78
2023/05/20 00:28:13;;;;;;;4.77;3.30;;;;;;;10.55;60.89;101729.75;691449;28;1054;-78
2023/05/20 00:28:34;;;;;;;4.15;3.20;;;;;;;10.55;60.93;101728.06;691208;28;1098;-79
2023/05/20 00:28:55;;;;;;;5.30;3.30;;;;;;;10.53;60.98;101726.19;686013;28;1185;-78
2023/05/20 00:29:15;;;;;;;4.97;3.27;;;;;;;10.51;60.96;101728.72;691347;28;1373;-78
2023/05/20 00:29:36;;;;;;;5.73;3.07;;;;;;;10.50;60.97;101720.84;691275;28;1071;-78
2023/05/20 00:29:57;;;;;;;4.93;2.90;;;;;;;10.50;61.04;101724.34;696957;28;1207;-79
2023/05/20 00:30:18;;;;;;;5.05;2.90;;;;;;;10.53;60.82;101723.59;693986;28;1208;-79
2023/05/20 00:30:40;;;;;;;4.10;2.90;;;;;;;10.51;61.28;101728.72;694000;28;1361;-78
2023/05/20 00:31:01;;;;;;;3.50;2.90;;;;;;;10.61;61.20;101736.94;691543;28;904;-78
2023/05/20 00:31:22;;;;;;;3.88;2.80;;;;;;;10.54;61.08;101725.38;694102;28;1084;-78
2023/05/20 00:31:42;;;;;;;4.35;3.05;;;;;;;10.62;61.04;101743.97;693806;28;1194;-79
2023/05/20 00:32:03;;;;;;;5.20;3.20;;;;;;;10.62;60.96;101742.25;696900;28;1323;-78
2023/05/20 00:32:24;;;;;;;5.00;3.50;;;;;;;10.53;61.05;101727.09;686006;28;1437;-79
2023/05/20 00:32:45;;;;;;;4.85;3.58;;;;;;;10.61;61.37;101748.31;688453;28;1194;-78
2023/05/20 00:33:05;;;;;;;4.70;3.60;;;;;;;10.64;60.96;101748.41;697171;28;1347;-78
2023/05/20 00:33:26;;;;;;;5.20;3.47;;;;;;;10.63;61.01;101751.84;696870;28;1186;-79
2023/05/20 00:33:47;;;;;;;4.45;3.10;;;;;;;10.56;61.20;101731.53;693855;28;1191;-78
2023/05/20 00:34:08;;;;;;;4.63;3.20;;;;;;;10.61;61.21;101736.94;691419;28;1012;-79
2023/05/20 00:34:29;;;;;;;4.53;3.35;;;;;;;10.52;61.04;101721.81;688416;28;1255;-78
2023/05/20 00:34:59;;;;;;;6.07;3.40;;;;;;;10.65;61.17;101746.72;691250;28;1267;-79
2023/05/20 00:35:20;;;;;;;6.82;3.10;;;;;;;10.55;61.15;101727.16;688562;28;1243;-79
2023/05/20 00:35:40;;;;;;;6.30;3.00;;;;;;;10.62;60.99;101741.38;691293;28;1067;-79
2023/05/20 00:36:01;;;;;;;6.35;2.80;;;;;;;10.55;61.03;101732.38;688723;28;1270;-79
2023/05/20 00:36:22;;;;;;;5.60;2.90;;;;;;;10.63;61.19;101738.81;691189;28;1191;-78
2023/05/20 00:36:42;;;;;;;5.73;3.00;;;;;;;10.59;60.86;101736.00;691163;28;1250;-80
2023/05/20 00:37:03;;;;;;;5.22;3.08;;;;;;;10.53;60.98;101718.38;691122;28;1202;-79
2023/05/20 00:37:24;;;;;;;6.40;3.50;;;;;;;10.55;61.35;101732.38;691417;28;1971;-79
2023/05/20 00:37:44;;;;;;;4.40;3.35;;;;;;;10.56;61.06;101731.53;691234;28;1142;-79
2023/05/20 00:38:05;;;;;;;4.13;3.50;;;;;;;10.59;60.95;101736.91;691397;28;1216;-78
2023/05/20 00:38:25;;;;;;;3.42;3.08;;;;;;;10.58;60.99;101737.75;691344;28;1012;-79
2023/05/20 00:38:46;;;;;;;4.20;3.30;;;;;;;10.59;61.18;101738.63;688427;28;1216;-78
2023/05/20 00:39:07;;;;;;;4.68;3.17;;;;;;;10.54;61.09;101731.50;688782;28;1031;-78
2023/05/20 00:39:29;;;;;;;4.30;3.00;;;;;;;10.54;60.90;101728.88;693886;28;1206;-79
2023/05/20 00:39:50;;;;;;;4.18;2.90;;;;;;;10.59;61.21;101739.53;694044;28;1224;-79
2023/05/20 00:40:11;;;;;;;4.72;3.30;;;;;;;10.54;61.25;101728.88;693935;28;1239;-79
2023/05/20 00:40:32;;;;;;;4.88;3.40;;;;;;;10.53;61.16;101723.59;688196;28;1186;-78
2023/05/20 00:40:52;;;;;;;5.28;3.47;;;;;;;10.51;61.11;101722.63;688824;28;752;-78
2023/05/20 00:41:13;;;;;;;4.03;3.20;;;;;;;10.54;61.23;101728.88;691539;28;1032;-78
2023/05/20 00:41:34;;;;;;;4.00;3.20;;;;;;;10.57;61.07;101730.69;687933;28;1196;-79
2023/05/20 00:41:59;;;;;;;4.70;3.10;;;;;;;10.59;60.96;101739.53;688753;28;871;-79
2023/05/20 00:42:20;;;;;;;4.50;3.03;;;;;;;10.64;61.01;101742.31;688490;28;1083;-78
2023/05/20 00:42:42;;;;;;;3.90;3.20;;;;;;;10.58;61.02;101739.44;691320;28;1213;-79
2023/05/20 00:43:02;;;;;;;4.03;3.20;;;;;;;10.55;61.16;101730.66;691502;28;1136;-78
2023/05/20 00:43:25;;;;;;;5.00;3.40;;;;;;;10.59;60.90;101733.38;688631;28;912;-78
2023/05/20 00:43:45;;;;;;;5.25;3.35;;;;;;;10.52;61.17;101727.03;696566;28;1164;-78
2023/05/20 00:44:06;;;;;;;6.00;3.80;;;;;;;10.56;61.27;101734.16;696946;28;1035;-79
2023/05/20 00:44:27;;;;;;;5.10;3.60;;;;;;;10.53;61.29;101726.19;696526;28;1211;-79
2023/05/20 00:44:47;;;;;;;4.70;3.50;;;;;;;10.59;61.10;101744.75;696874;28;1007;-78
2023/05/20 00:45:08;;;;;;;3.90;3.08;;;;;;;10.55;61.17;101732.38;694125;28;1068;-78
2023/05/20 00:45:30;;;;;;;3.92;3.08;;;;;;;10.48;61.27;101718.16;691129;28;1486;-78
2023/05/20 00:45:54;;;;;;;3.35;2.85;;;;;;;10.50;61.32;101723.47;688783;28;942;-79
2023/05/20 00:46:15;;;;;;;3.28;2.70;;;;;;;10.55;61.00;101732.38;691327;28;967;-78
2023/05/20 00:46:36;;;;;;;4.15;2.72;;;;;;;10.50;61.16;101724.34;691265;28;1255;-78
2023/05/20 00:47:29;;;;;;;4.22;2.80;;;;;;;10.59;61.11;101744.75;691200;28;1389;-79
2023/05/20 00:47:51;;;;;;;5.60;3.00;;;;;;;10.47;61.16;101733.75;693863;28;1329;-78
2023/05/20 00:48:12;;;;;;;3.83;3.13;;;;;;;10.52;61.05;101727.91;691313;28;1450;-78
2023/05/20 00:48:40;;;;;;;3.90;3.20;;;;;;;10.45;61.30;101723.22;685548;28;1159;-78
2023/05/20 00:49:01;;;;;;;3.80;3.10;;;;;;;10.55;61.02;101742.81;691287;28;1338;-78
2023/05/20 00:49:22;;;;;;;4.10;3.20;;;;;;;10.49;61.30;101732.09;691433;28;1137;-78
2023/05/20 00:49:44;;;;;;;5.00;3.10;;;;;;;10.51;61.46;101730.47;691366;28;1411;-78
2023/05/20 00:50:06;;;;;;;5.00;3.20;;;;;;;10.43;61.16;101717.06;694190;28;1130;-79
2023/05/20 00:50:27;;;;;;;4.88;3.30;;;;;;;10.45;61.30;101718.00;688387;28;1351;-78
2023/05/20 00:50:49;;;;;;;5.30;3.17;;;;;;;10.51;61.03;101730.47;688520;28;1154;-78
2023/05/20 00:51:11;;;;;;;8.10;3.10;;;;;;;10.51;61.10;101730.47;685945;28;1277;-78
2023/05/20 00:51:32;;;;;;;8.00;3.05;;;;;;;10.46;61.74;101721.53;691021;28;1487;-79
2023/05/20 00:51:53;;;;;;;8.03;3.40;;;;;;;10.48;61.27;101722.47;688872;28;1008;-78
2023/05/20 00:52:14;;;;;;;4.10;3.30;;;;;;;10.49;61.38;101716.44;691253;28;1163;-79
2023/05/20 00:52:35;;;;;;;3.50;3.15;;;;;;;10.56;61.55;101731.53;685749;28;1072;-79
2023/05/20 00:52:57;;;;;;;3.60;2.80;;;;;;;10.51;61.31;101725.25;686002;28;1169;-79
2023/05/20 00:53:20;;;;;;;3.88;2.75;;;;;;;10.55;61.11;101733.28;691205;28;1175;-79
2023/05/20 00:53:42;;;;;;;4.10;3.00;;;;;;;10.58;61.58;101736.84;696544;28;1295;-78
2023/05/20 00:54:03;;;;;;;4.70;3.30;;;;;;;10.60;61.43;101740.38;696851;28;1463;-78
2023/05/20 00:54:24;;;;;;;4.63;3.43;;;;;;;10.53;61.19;101728.81;691193;28;1346;-78
2023/05/20 00:54:45;;;;;;;4.15;3.30;;;;;;;10.47;61.32;101718.09;693870;28;1103;-78
2023/05/20 00:55:06;;;;;;;4.10;3.17;;;;;;;10.48;61.09;101720.78;694152;28;1051;-78
2023/05/20 00:55:26;;;;;;;4.10;3.03;;;;;;;10.50;61.19;101728.69;696750;28;1371;-79
2023/05/20 00:55:47;;;;;;;4.53;3.28;;;;;;;10.49;61.33;101722.56;688549;28;1370;-78
2023/05/20 00:56:08;;;;;;;5.55;3.38;;;;;;;10.50;61.33;101728.69;688746;28;1185;-79
2023/05/20 00:56:30;;;;;;;5.13;3.25;;;;;;;10.48;61.45;101727.69;690982;28;1275;-78
2023/05/20 00:56:52;;;;;;;4.07;2.92;;;;;;;10.44;61.23;101717.97;691097;28;1184;-79
2023/05/20 00:57:12;;;;;;;3.70;3.00;;;;;;;10.44;61.53;101716.22;688577;28;1368;-78
2023/05/20 00:57:33;;;;;;;4.53;3.27;;;;;;;10.49;61.55;101729.47;688087;28;1986;-79
2023/05/20 00:57:54;;;;;;;4.07;3.15;;;;;;;10.48;61.54;101725.09;688798;28;859;-78
2023/05/20 00:58:15;;;;;;;4.78;3.05;;;;;;;10.48;61.63;101732.91;691237;28;1200;-78
2023/05/20 00:58:36;;;;;;;4.38;3.08;;;;;;;10.50;61.75;101733.91;690892;28;1308;-78
2023/05/20 00:58:58;;;;;;;4.85;3.40;;;;;;;10.45;61.65;101727.56;691513;28;835;-78
2023/05/20 00:59:19;;;;;;;4.50;3.60;;;;;;;10.39;61.71;101715.16;694137;28;1150;-78
2023/05/20 00:59:40;;;;;;;4.47;3.60;;;;;;;10.42;61.62;101723.13;699418;28;1001;-78
2023/05/20 01:00:03;;;;;;;4.30;3.40;;;;;;;10.43;61.80;101722.28;694203;28;1184;-78
2023/05/20 01:00:24;;;;;;;3.70;3.10;;;;;;;10.47;61.43;101723.31;693957;28;1188;-78
2023/05/20 01:00:45;;;;;;;4.00;3.10;;;;;;;10.50;61.19;101733.91;688354;28;1287;-78
2023/05/20 01:01:06;;;;;;;4.90;3.00;;;;;;;10.45;61.17;101711.91;688719;28;1199;-79
2023/05/20 01:01:26;;;;;;;5.10;3.00;;;;;;;10.52;61.34;101721.81;691256;28;1016;-79
2023/05/20 01:01:48;;;;;;;4.50;3.03;;;;;;;10.58;61.21;101737.75;691268;28;1140;-78
2023/05/20 01:02:08;;;;;;;3.30;3.00;;;;;;;10.53;61.42;101728.81;694187;28;1215;-79
2023/05/20 01:02:29;;;;;;;3.60;3.10;;;;;;;10.51;61.43;101722.63;691209;28;1096;-78
2023/05/20 01:02:50;;;;;;;4.65;3.10;;;;;;;10.60;61.26;101738.69;694145;28;909;-78
2023/05/20 01:03:11;;;;;;;4.65;2.97;;;;;;;10.55;61.12;101727.16;694085;28;1085;-78
2023/05/20 01:03:32;;;;;;;5.50;2.80;;;;;;;10.54;61.15;101736.72;693711;28;1277;-79
2023/05/20 01:03:53;;;;;;;4.90;2.97;;;;;;;10.49;61.48;101725.16;691322;28;1384;-78
2023/05/20 01:04:14;;;;;;;5.07;3.20;;;;;;;10.49;61.51;101726.88;694017;28;1342;-78
2023/05/20 01:04:35;;;;;;;4.15;3.17;;;;;;;10.52;61.27;101732.25;690841;28;1175;-78
2023/05/20 01:04:56;;;;;;;4.65;3.15;;;;;;;10.49;61.56;101732.09;694092;28;809;-78
2023/05/20 01:05:17;;;;;;;4.78;3.30;;;;;;;10.50;61.66;101731.28;696784;28;1074;-78
2023/05/20 01:05:37;;;;;;;5.47;3.40;;;;;;;10.51;61.79;101735.69;699335;28;1246;-79
2023/05/20 01:05:59;;;;;;;4.45;3.47;;;;;;;10.50;61.66;101726.94;696787;28;1433;-78
2023/05/20 01:06:21;;;;;;;4.53;3.30;;;;;;;10.53;61.50;101739.25;691016;28;1165;-78
2023/05/20 01:06:41;;;;;;;5.07;3.35;;;;;;;10.51;61.57;101735.69;691197;28;1022;-78
2023/05/20 01:07:05;;;;;;;5.10;3.30;;;;;;;10.49;61.55;101733.00;688465;28;1022;-78
2023/05/20 01:07:26;;;;;;;5.22;3.40;;;;;;;10.40;61.79;101720.41;691186;28;1338;-78
2023/05/20 01:07:47;;;;;;;4.13;3.38;;;;;;;10.50;61.40;101733.91;696692;28;1316;-79
2023/05/20 01:08:07;;;;;;;4.30;3.45;;;;;;;10.40;61.39;101717.81;688509;28;978;-78
2023/05/20 01:08:28;;;;;;;4.40;3.30;;;;;;;10.47;61.36;101728.53;688424;28;1092;-78
2023/05/20 01:08:49;;;;;;;4.00;3.15;;;;;;;10.38;61.53;101714.25;691192;28;1068;-79
2023/05/20 01:09:10;;;;;;;3.72;3.08;;;;;;;10.42;61.63;101720.50;696675;28;1151;-78
2023/05/20 01:09:32;;;;;;;3.38;3.08;;;;;;;10.40;61.38;101722.16;688276;28;1512;-78
2023/05/20 01:09:54;;;;;;;4.00;3.03;;;;;;;10.44;61.82;101725.78;688638;28;1284;-77
2023/05/20 01:10:15;;;;;;;4.40;3.20;;;;;;;10.48;61.50;101743.34;685808;28;1220;-78
2023/05/20 01:10:40;;;;;;;4.70;3.35;;;;;;;10.37;61.40;101719.41;691051;28;1198;-79
2023/05/20 01:11:06;;;;;;;3.60;3.10;;;;;;;10.47;61.70;101744.19;691251;28;1329;-78
2023/05/20 01:11:38;;;;;;;3.70;3.15;;;;;;;10.35;61.78;101721.97;693735;28;1306;-79
2023/05/20 01:12:03;;;;;;;3.70;3.20;;;;;;;10.43;61.92;101737.94;691337;28;1406;-78
2023/05/20 01:12:42;;;;;;;3.63;2.78;;;;;;;10.39;61.98;101725.59;688411;28;1303;-78
2023/05/20 01:13:07;;;;;;;4.15;3.03;;;;;;;10.39;61.80;101731.69;685886;28;1090;-78
2023/05/20 01:13:37;;;;;;;4.72;3.20;;;;;;;10.33;62.07;101725.31;693720;28;1962;-79
2023/05/20 01:14:05;;;;;;;5.70;3.30;;;;;;;10.27;62.03;101715.50;691314;28;906;-78
2023/05/20 01:14:31;;;;;;;5.32;3.20;;;;;;;10.27;62.19;101716.38;691117;28;1180;-79
2023/05/20 01:15:14;;;;;;;4.30;3.10;;;;;;;10.36;61.91;101730.66;693847;28;1394;-79
2023/05/20 01:15:35;;;;;;;5.55;3.00;;;;;;;10.25;62.47;101718.03;697037;28;1039;-78
2023/05/20 01:16:27;;;;;;;5.95;3.05;;;;;;;10.32;62.41;101729.63;696517;28;944;-79
2023/05/20 01:16:51;;;;;;;4.70;2.88;;;;;;;10.30;62.39;101723.47;693630;28;1409;-78
2023/05/20 01:17:16;;;;;;;4.18;3.00;;;;;;;10.21;62.31;101717.81;693593;28;1450;-78
2023/05/20 01:17:46;;;;;;;5.00;3.40;;;;;;;10.20;62.25;101718.63;693304;28;1040;-79
2023/05/20 01:18:09;;;;;;;4.57;3.20;;;;;;;10.18;62.31;101712.47;696777;28;1436;-77
2023/05/20 01:18:31;;;;;;;5.80;3.40;;;;;;;10.10;62.22;101699.97;693577;28;1437;-79
2023/05/20 01:18:54;;;;;;;5.80;3.15;;;;;;;10.19;62.45;101729.91;696950;28;1390;-78
2023/05/20 01:19:32;;;;;;;4.00;2.80;;;;;;;10.08;62.63;101730.28;693963;28;1052;-78
2023/05/20 01:19:55;;;;;;;3.38;2.90;;;;;;;9.95;62.83;101707.09;691339;28;997;-78
2023/05/20 01:20:17;;;;;;;4.03;3.15;;;;;;;9.96;62.75;101714.97;691206;28;1004;-78
2023/05/20 01:20:38;;;;;;;3.85;3.03;;;;;;;9.94;62.90;101711.41;688257;28;1183;-77
2023/05/20 01:21:01;;;;;;;3.50;3.03;;;;;;;9.92;63.26;101707.84;691236;28;1335;-77
2023/05/20 01:21:22;;;;;;;4.30;2.95;;;;;;;9.98;63.36;101715.94;693942;28;1561;-78
2023/05/20 01:21:45;;;;;;;4.68;3.10;;;;;;;9.94;63.48;101716.63;688835;28;1199;-77
2023/05/20 01:22:11;;;;;;;5.18;3.20;;;;;;;9.90;63.59;101721.63;691347;28;1055;-78
2023/05/20 01:22:31;;;;;;;5.38;3.30;;;;;;;9.85;63.76;101710.97;693670;28;1296;-77
2023/05/20 01:22:53;;;;;;;5.03;3.22;;;;;;;9.90;63.77;101713.81;691306;28;808;-77
2023/05/20 01:23:14;;;;;;;5.10;3.20;;;;;;;9.85;63.69;101705.78;693946;28;1416;-78
2023/05/20 01:23:40;;;;;;;3.88;3.22;;;;;;;9.91;63.98;101721.69;693733;28;988;-78
2023/05/20 01:24:04;;;;;;;3.45;2.90;;;;;;;9.90;63.75;101713.81;691131;28;1662;-77
2023/05/20 01:24:25;;;;;;;3.72;2.90;;;;;;;9.92;63.89;101717.38;691082;28;1339;-77
2023/05/20 01:24:52;;;;;;;4.20;2.97;;;;;;;9.87;64.00;101709.34;688475;28;1116;-78
2023/05/20 01:25:12;;;;;;;3.85;2.95;;;;;;;9.95;63.80;101727.97;685914;28;1253;-77
2023/05/20 01:25:33;;;;;;;4.30;3.00;;;;;;;9.85;63.88;101710.97;685478;28;1150;-78
2023/05/20 01:25:53;;;;;;;4.20;3.00;;;;;;;9.92;63.97;101723.50;688578;28;1154;-78
2023/05/20 01:26:14;;;;;;;4.37;3.00;;;;;;;9.85;63.96;101717.06;693953;28;1513;-77
2023/05/20 01:26:37;;;;;;;3.40;2.90;;;;;;;9.85;63.90;101717.06;693422;28;1451;-78
2023/05/20 01:26:59;;;;;;;3.35;2.92;;;;;;;9.79;64.11;101708.09;691127;28;1384;-78
2023/05/20 01:27:21;;;;;;;3.97;3.20;;;;;;;9.89;64.19;101722.44;691044;28;1444;-77
2023/05/20 01:27:42;;;;;;;4.22;3.15;;;;;;;9.91;64.28;101731.22;688276;28;1218;-77
2023/05/20 01:28:03;;;;;;;4.10;2.90;;;;;;;9.90;64.04;101729.44;688530;28;1222;-78
2023/05/20 01:28:25;;;;;;;3.85;3.10;;;;;;;9.89;64.22;101725.94;689028;28;1471;-78
2023/05/20 01:28:46;;;;;;;3.45;2.95;;;;;;;9.87;64.14;101731.09;691090;28;1255;-78
2023/05/20 01:29:07;;;;;;;3.88;3.22;;;;;;;9.86;64.17;101729.31;691308;28;1124;-78
2023/05/20 01:29:28;;;;;;;3.53;3.20;;;;;;;9.80;64.54;101713.38;691111;28;1118;-77
2023/05/20 01:29:50;;;;;;;3.72;3.28;;;;;;;9.76;64.51;101706.22;696656;28;1439;-77
2023/05/20 01:30:12;;;;;;;3.35;3.03;;;;;;;9.81;64.29;101715.16;694116;28;1047;-78
2023/05/20 01:30:40;;;;;;;3.47;3.03;;;;;;;9.88;64.18;101734.59;693537;28;1099;-77
2023/05/20 01:31:04;;;;;;;4.07;3.50;;;;;;;9.79;64.53;101714.22;691323;28;1212;-78
2023/05/20 01:31:31;;;;;;;5.05;3.60;;;;;;;9.73;64.47;101713.91;691126;28;1094;-78
2023/05/20 01:31:55;;;;;;;4.63;3.10;;;;;;;9.74;64.55;101713.09;688591;28;800;-77
2023/05/20 01:32:21;;;;;;;4.28;3.30;;;;;;;9.81;64.60;101724.69;688465;28;1036;-77
2023/05/20 01:32:51;;;;;;;4.60;3.40;;;;;;;9.75;64.72;101719.22;693912;28;1124;-78
2023/05/20 01:33:15;;;;;;;5.63;3.60;;;;;;;9.72;64.50;101709.53;693897;28;1111;-77
2023/05/20 01:33:38;;;;;;;5.65;3.63;;;;;;;9.68;64.55;101707.59;690914;28;1225;-77
2023/05/20 01:33:59;;;;;;;5.75;3.40;;;;;;;9.73;64.66;101716.53;685929;28;870;-77
2023/05/20 01:34:20;;;;;;;4.13;2.92;;;;;;;9.74;64.58;101715.69;688421;28;1208;-77
2023/05/20 01:34:44;;;;;;;4.93;2.85;;;;;;;9.77;64.76;101723.66;688204;28;1091;-78
2023/05/20 01:35:05;;;;;;;4.38;2.90;;;;;;;9.77;64.68;101723.66;691270;28;1199;-77
2023/05/20 01:35:27;;;;;;;4.00;2.80;;;;;;;9.67;64.81;101703.19;691053;28;1365;-78
2023/05/20 01:35:48;;;;;;;4.70;2.92;;;;;;;9.77;64.51;101717.56;693880;28;1286;-77
2023/05/20 01:36:11;;;;;;;6.20;3.13;;;;;;;9.67;64.45;101704.09;693831;28;1102;-77
2023/05/20 01:36:33;;;;;;;6.40;3.33;;;;;;;9.77;64.55;101725.38;690789;28;1272;-78
2023/05/20 01:36:54;;;;;;;4.65;3.13;;;;;;;9.71;64.85;101712.97;696595;28;1228;-78
2023/05/20 01:37:16;;;;;;;3.28;2.97;;;;;;;9.68;64.69;101708.50;693950;28;1186;-78
2023/05/20 01:37:40;;;;;;;3.10;2.80;;;;;;;9.69;64.97;101717.19;693813;28;1111;-78
2023/05/20 01:38:03;;;;;;;3.33;2.90;;;;;;;9.65;64.61;101699.63;693783;28;1350;-77
2023/05/20 01:38:25;;;;;;;3.80;3.10;;;;;;;9.72;65.03;101718.22;693840;28;925;-78
2023/05/20 01:38:47;;;;;;;7.50;3.30;;;;;;;9.63;64.86;101703.91;688364;28;973;-78
2023/05/20 01:39:09;;;;;;;7.45;3.53;;;;;;;9.70;64.79;101705.94;685822;28;1604;-77
2023/05/20 01:39:33;;;;;;;7.65;3.50;;;;;;;9.72;64.75;101709.53;688307;28;1248;-77
2023/05/20 01:39:55;;;;;;;4.80;3.60;;;;;;;9.80;64.89;101723.81;691276;28;1356;-77
2023/05/20 01:40:17;;;;;;;5.90;3.40;;;;;;;9.77;64.97;101718.44;688516;28;1232;-77
2023/05/20 01:40:38;;;;;;;5.20;3.33;;;;;;;9.68;64.54;101698.06;688188;28;1117;-78
2023/05/20 01:41:03;;;;;;;5.10;3.10;;;;;;;9.75;64.63;101719.22;688431;28;843;-77
2023/05/20 01:41:26;;;;;;;4.90;3.00;;;;;;;9.75;64.73;101712.25;693825;28;1453;-77
2023/05/20 01:41:48;;;;;;;5.00;3.00;;;;;;;9.79;64.69;101722.03;691278;28;1028;-77
2023/05/20 01:42:10;;;;;;;4.57;3.17;;;;;;;9.80;64.98;101725.50;691180;28;1270;-77
2023/05/20 01:42:31;;;;;;;3.63;3.20;;;;;;;9.73;64.81;101711.31;688156;28;1388;-78
2023/05/20 01:42:54;;;;;;;3.40;3.00;;;;;;;9.82;64.74;101722.16;691380;28;855;-77
2023/05/20 01:43:16;;;;;;;3.30;3.00;;;;;;;9.82;64.44;101722.16;688508;28;1102;-78
2023/05/20 01:43:38;;;;;;;3.35;3.05;;;;;;;9.73;64.66;101711.31;690843;28;1012;-77
2023/05/20 01:43:59;;;;;;;4.95;3.30;;;;;;;9.76;64.77;101711.44;691261;28;911;-78
2023/05/20 01:44:20;;;;;;;4.68;3.13;;;;;;;9.82;64.28;101732.59;691163;28;1208;-78
2023/05/20 01:44:41;;;;;;;4.72;3.05;;;;;;;9.73;64.52;101709.56;691035;28;1042;-78
2023/05/20 01:45:03;;;;;;;3.80;2.97;;;;;;;9.77;64.78;101712.34;688505;28;1363;-77
2023/05/20 01:45:24;;;;;;;4.00;3.00;;;;;;;9.71;64.59;101713.84;693780;28;1188;-78